ADDS METAR Data INFO
IDs: Format: Raw Decoded Include TAF

Data at: 1113 UTC 13 Dec 2017

KADS 131035Z AUTO 19006KT 10SM CLR 06/M01 A3010 RMK AO2 T00561013
KADS 131015Z AUTO 19006KT 10SM CLR 06/M01 A3010 RMK AO2 T00561015
KADS 130955Z AUTO 19005KT 10SM CLR 06/M01 A3011 RMK AO2 T00551015
KADS 130935Z AUTO 19004KT 10SM CLR 06/M01 A3012 RMK AO2 T00551015
KADS 130915Z AUTO 19005KT 10SM CLR 06/M01 A3013 RMK AO2 T00561013
KADS 130855Z AUTO 19004KT 10SM CLR 06/M01 A3013 RMK AO2 T00571011
KADS 130835Z AUTO 19004KT 10SM CLR 05/M01 A3014 RMK AO2 T00511008
KADS 130815Z AUTO 19003KT 10SM CLR 05/M01 A3014 RMK AO2 T00521010
KADS 130755Z AUTO 00000KT 10SM CLR 06/M01 A3014 RMK AO2 T00571012
KADS 130735Z AUTO 19003KT 10SM CLR 05/M01 A3015 RMK AO2 T00481012
KADS 130715Z AUTO 00000KT 10SM CLR 04/M01 A3016 RMK AO2 T00441015
KADS 130655Z AUTO 20003KT 10SM CLR 06/M02 A3017 RMK AO2 T00601018
KADS 130635Z AUTO 00000KT 10SM CLR 06/M02 A3018 RMK AO2 T00601021
KADS 130615Z AUTO 20003KT 10SM CLR 06/M02 A3018 RMK AO2 T00601025
KADS 130555Z AUTO 00000KT 10SM CLR 06/M02 A3019 RMK AO2 T00591025 10100 20054 401340053
KADS 130535Z AUTO 00000KT 10SM CLR 06/M02 A3020 RMK AO2 T00641022
KADS 130515Z AUTO 00000KT 10SM CLR 05/M02 A3021 RMK AO2 T00541022
KADS 130455Z AUTO 00000KT 10SM CLR 06/M02 A3021 RMK AO2 T00581023
KADS 130435Z AUTO 00000KT 10SM CLR 06/M02 A3022 RMK AO2 T00571021
KADS 130415Z AUTO 00000KT 10SM CLR 06/M02 A3023 RMK AO2 T00591025
KADS 130357Z 00000KT 12SM SKC 07/M03 A3022
KADS 130355Z AUTO 00000KT 10SM CLR 07/M02 A3023 RMK AO2 T00661023
KADS 130335Z AUTO 00000KT 10SM CLR 07/M02 A3024 RMK AO2 T00691023
KADS 130315Z AUTO 00000KT 10SM CLR 08/M02 A3025 RMK AO2 T00751021
KADS 130300Z 27003KT 12SM SKC 08/M03 A3024
KADS 130147Z 00000KT 13SM SKC 08/M02 A3026
KADS 130047Z 32003KT 13SM SKC 10/M03 A3026
KADS 122352Z 32010KT 11SM SKC 10/M03 A3026
KADS 122252Z 32010KT 11SM SKC 12/M04 A3027
KADS 122147Z 32010G16KT 13SM SKC 12/M04 A3030
KADS 122051Z 35010G15KT 11SM SKC 12/M05 A3031
KADS 121947Z 32010G15KT 13SM SKC 12/M03 A3034
KADS 121847Z 31010G15KT 13SM SKC 11/M04 A3037
KADS 121747Z 35014G23KT 13SM SKC 10/M05 A3042
KADS 121647Z 35014G23KT 13SM SKC 09/M03 A3045
KADS 121554Z 35014G23KT 13SM SKC 08M02 A3044
KADS 121451Z 34012G24KT 13SM SKC 07M02 A3042
KADS 121351Z 34014G19KT 13SM SKC 06/M02 A3041
KADS 121247Z 34007G16KT 10SM SKC 06/M02 A3038
KADS 121153Z 34010G17KT 10SM SKC 07/M02 A3035
KADS 121035Z AUTO 36012G19KT 10SM CLR 08/M03 A3034 RMK AO2 T00831030
KADS 121015Z AUTO 35012G20KT 10SM CLR 09/M03 A3034 RMK AO2 T00861033
KADS 120955Z AUTO 35012G19KT 10SM CLR 09/M03 A3034 RMK AO2 T00891035
KADS 120935Z AUTO 35011G17KT 10SM CLR 09/M04 A3033 RMK AO2 T00901040
KADS 120915Z AUTO 35008G14KT 10SM CLR 09/M04 A3032 RMK AO2 T00911040
KADS 120855Z AUTO 36011KT 10SM CLR 10/M04 A3032 RMK AO2 T00981041
KADS 120835Z AUTO 35011G16KT 10SM CLR 10/M05 A3031 RMK AO2 T01011046
KADS 120815Z AUTO 35011KT 10SM CLR 10/M05 A3031 RMK AO2 T01041052
KADS 120755Z AUTO 36010G17KT 10SM CLR 11/M06 A3030 RMK AO2 T01111056
KADS 120735Z AUTO 36011G20KT 10SM CLR 12/M06 A3029 RMK AO2 T01151060
KADS 120715Z AUTO 36013G21KT 10SM CLR 12/M06 A3028 RMK AO2 T01211065
KADS 120655Z AUTO 35015G19KT 10SM CLR 12/M07 A3027 RMK AO2 T01231066
KADS 120635Z AUTO 35011G18KT 10SM CLR 13/M06 A3026 RMK AO2 T01251063
KADS 120615Z AUTO 35012G19KT 10SM CLR 13/M06 A3025 RMK AO2 T01341062
KADS 120555Z AUTO 34006KT 10SM CLR 11/M06 A3024 RMK AO2 T01131060 10198 20113 402420050
KADS 120535Z AUTO 33005KT 10SM CLR 12/M06 A3023 RMK AO2 T01171061
KADS 120515Z AUTO 33005KT 10SM CLR 12/M06 A3023 RMK AO2 T01221060
KADS 120455Z AUTO 34005KT 10SM CLR 13/M06 A3022 RMK AO2 T01261058
KADS 120435Z AUTO 34005KT 10SM CLR 13/M06 A3022 RMK AO2 T01291060
KADS 120415Z AUTO 35008KT 10SM CLR 14/M06 A3021 RMK AO2 T01401060
KADS 120355Z AUTO 35010KT 10SM CLR 14/M05 A3020 RMK AO2 T01411055
KADS 120347Z 34010G14KT 13SM SKC 14/M06 A3018 RMK LAST WX
KADS 120335Z AUTO 34008KT 10SM CLR 15/M05 A3019 RMK AO2 T01461054
KADS 120310Z AUTO 33009KT 10SM CLR 15/M05 A3018 RMK AO2 T01501047
KADS 120247Z 32008KT 13SM SKC 16/M06 A3016
KADS 120147Z 31008KT 13SM SKC 17/M07 A3015
KADS 112359Z 25008KT 13SM SKC 19/M10 A3012